Latest Coastal Weather Observations for Burnie Port

IDT60701

Issued at 8:22 pm EST Monday 26 September 2016 (issued every 10 minutes, with the page automatically refreshed every 10 minutes)

About coastal observations | Map of coastal stations | Coastal observations for TAS | Marine services | Other Formats
Station Details ID: 091344 Name: BURNIE NTC AWS Lat: -41.05 Lon: 145.91 Height: 0.0 m
Data from the previous 72 hours. | See also: Recent months for locations in Tasmania
Date/Time
EST
Temp
°C
Wind Pressure Rain since
9am
mm
Weather Cloud Vis
km
Sea
Height
m
Swell
Dir  Spd
kts
Gust
kts
hPa Trend Height
m
Period
s
Dir
26/08:00pm - S 6 8 1009.2 - - - - - - - - -
26/07:30pm - N 6 7 1009.0 - - - - - - - - -
26/07:00pm - N 6 8 1008.9 - - - - - - - - -
26/06:30pm - NNW 5 6 1008.8 - - - - - - - - -
26/06:00pm - NNW 5 7 1008.7 - - - - - - - - -
26/05:30pm - NNW 8 10 1008.6 - - - - - - - - -
26/05:00pm - NNW 9 11 1008.6 - - - - - - - - -
26/04:30pm - NNW 7 10 1008.5 - - - - - - - - -
26/04:00pm - N 9 11 1008.5 - - - - - - - - -
26/03:30pm - N 10 12 1008.5 - - - - - - - - -
26/03:00pm - N 10 13 1008.7 - - - - - - - - -
26/02:30pm - N 10 12 1008.8 - - - - - - - - -
26/02:00pm - NNW 10 11 1008.9 - - - - - - - - -
26/01:30pm - NNW 12 14 1009.1 - - - - - - - - -
26/01:00pm - NNW 9 12 1009.3 - - - - - - - - -
26/12:30pm - N 8 11 1009.6 - - - - - - - - -
26/12:00pm - N 7 8 1010.0 - - - - - - - - -
26/11:30am - NNE 5 6 1010.3 - - - - - - - - -
26/11:00am - NNE 5 6 1010.6 - - - - - - - - -
26/10:30am - NNE 5 5 1010.9 - - - - - - - - -
26/10:00am - NNE 3 5 1011.0 - - - - - - - - -
26/09:30am - NNE 3 4 1011.1 - - - - - - - - -
26/09:00am - N 3 4 1011.2 - - - - - - - - -
26/08:30am - E 1 3 1011.4 - - - - - - - - -
26/08:00am - SSW 2 3 1011.4 - - - - - - - - -
26/07:30am - S 4 5 1011.4 - - - - - - - - -
26/07:00am - S 2 3 1011.4 - - - - - - - - -
26/06:30am - S 4 5 1011.3 - - - - - - - - -
26/06:00am - S 3 5 1011.1 - - - - - - - - -
26/05:30am - SSE 3 5 1010.9 - - - - - - - - -
26/05:00am - SSW 4 5 1010.9 - - - - - - - - -
26/04:30am - SSW 5 7 1010.8 - - - - - - - - -
26/04:00am - SW 5 9 1010.9 - - - - - - - - -
26/03:30am - SW 5 7 1010.8 - - - - - - - - -
26/03:00am - SW 5 8 1010.7 - - - - - - - - -
26/02:30am - SW 6 8 1010.9 - - - - - - - - -
26/02:00am - SW 6 9 1011.2 - - - - - - - - -
26/01:30am - SW 7 10 1011.4 - - - - - - - - -
26/01:00am - SW 7 10 1011.5 - - - - - - - - -
26/12:30am - SW 6 9 1011.5 - - - - - - - - -
26/12:00am - SW 7 10 1011.5 - - - - - - - - -
 
Date/Time
EST
Temp
°C
Wind Pressure Rain since
9am
mm
Weather Cloud Vis
km
Sea
Height
m
Swell
Dir  Spd
kts
Gust
kts
hPa Trend Height
m
Period
s
Dir
25/11:30pm - SW 7 10 1011.6 - - - - - - - - -
25/11:00pm - SW 5 7 1011.8 - - - - - - - - -
25/10:30pm - SW 6 8 1011.9 - - - - - - - - -
25/10:00pm - WSW 4 8 1011.8 - - - - - - - - -
25/09:30pm - W 5 9 1011.8 - - - - - - - - -
25/09:00pm - WSW 5 10 1011.5 - - - - - - - - -
25/08:30pm - WSW 6 10 1011.3 - - - - - - - - -
25/08:00pm - WSW 7 11 1010.9 - - - - - - - - -
25/07:30pm - WSW 4 9 1010.5 - - - - - - - - -
25/07:00pm - WSW 6 11 1010.1 - - - - - - - - -
25/06:30pm - WSW 6 11 1009.5 - - - - - - - - -
25/06:00pm - WSW 9 15 1008.9 - - - - - - - - -
25/05:30pm - WSW 8 15 1008.5 - - - - - - - - -
25/05:00pm - SW 10 17 1008.1 - - - - - - - - -
25/04:30pm - SW 10 15 1007.8 - - - - - - - - -
25/04:00pm - SW 8 18 1007.4 - - - - - - - - -
25/03:30pm - WSW 13 23 1007.3 - - - - - - - - -
25/03:00pm - WSW 11 19 1007.0 - - - - - - - - -
25/02:30pm - WSW 10 17 1006.8 - - - - - - - - -
25/02:00pm - SW 13 25 1006.9 - - - - - - - - -
25/01:30pm - WSW 10 19 1006.4 - - - - - - - - -
25/01:00pm - SW 12 19 1006.3 - - - - - - - - -
25/12:30pm - SW 12 19 1006.3 - - - - - - - - -
25/12:00pm - WSW 10 20 1006.0 - - - - - - - - -
25/11:30am - WSW 12 20 1005.9 - - - - - - - - -
25/11:00am - WSW 9 19 1005.8 - - - - - - - - -
25/10:30am - WSW 9 16 1005.8 - - - - - - - - -
25/10:00am - W 9 21 1005.6 - - - - - - - - -
25/09:30am - WSW 11 19 1005.6 - - - - - - - - -
25/09:00am - WSW 11 20 1005.4 - - - - - - - - -
25/08:30am - WSW 7 12 1005.1 - - - - - - - - -
25/08:00am - W 8 13 1004.8 - - - - - - - - -
25/07:30am - W 9 15 1004.5 - - - - - - - - -
25/07:00am - WNW 7 11 1004.5 - - - - - - - - -
25/06:30am - W 7 11 1003.8 - - - - - - - - -
25/06:00am - W 7 13 1003.6 - - - - - - - - -
25/05:30am - W 8 13 1003.3 - - - - - - - - -
25/05:00am - W 8 13 1002.9 - - - - - - - - -
25/04:30am - W 11 17 1002.5 - - - - - - - - -
25/04:00am - WSW 10 16 1001.9 - - - - - - - - -
25/03:30am - W 11 17 1001.6 - - - - - - - - -
25/03:16am - NW 17 23 1001.4 - - - - - - - - -
25/03:00am - NNW 22 26 1001.5 - - - - - - - - -
25/02:45am - NNW 17 28 1001.7 - - - - - - - - -
25/02:30am - NNW 16 19 1002.0 - - - - - - - - -
25/02:00am - NNW 15 21 1002.5 - - - - - - - - -
25/01:30am - NW 15 18 1003.1 - - - - - - - - -
25/01:00am - NNW 15 19 1003.4 - - - - - - - - -
25/12:30am - NNW 15 17 1003.6 - - - - - - - - -
25/12:00am - NNW 13 18 1003.7 - - - - - - - - -
 
Date/Time
EST
Temp
°C
Wind Pressure Rain since
9am
mm
Weather Cloud Vis
km
Sea
Height
m
Swell
Dir  Spd
kts
Gust
kts
hPa Trend Height
m
Period
s
Dir
24/11:30pm - NNW 13 16 1003.9 - - - - - - - - -
24/11:00pm - NE 6 9 1004.2 - - - - - - - - -
24/10:30pm - ENE 4 9 1004.4 - - - - - - - - -
24/10:00pm - E 7 9 1004.6 - - - - - - - - -
24/09:30pm - ESE 8 9 1004.7 - - - - - - - - -
24/09:00pm - E 7 9 1004.8 - - - - - - - - -
24/08:30pm - ESE 8 9 1005.0 - - - - - - - - -
24/08:00pm - ESE 7 8 1005.1 - - - - - - - - -
24/07:30pm - ESE 6 7 1005.2 - - - - - - - - -
24/07:00pm - ESE 7 8 1005.2 - - - - - - - - -
24/06:30pm - ESE 5 6 1005.1 - - - - - - - - -
24/06:00pm - E 3 5 1005.3 - - - - - - - - -
24/05:30pm - NE 5 6 1005.5 - - - - - - - - -
24/05:00pm - NE 4 5 1005.5 - - - - - - - - -
24/04:30pm - NE 4 5 1005.5 - - - - - - - - -
24/04:00pm - NE 4 5 1005.8 - - - - - - - - -
24/03:30pm - NNE 4 5 1005.9 - - - - - - - - -
24/03:00pm - NNE 6 7 1005.8 - - - - - - - - -
24/02:30pm - NNE 7 8 1005.8 - - - - - - - - -
24/02:00pm - NNE 8 10 1006.2 - - - - - - - - -
24/01:30pm - NE 9 11 1006.5 - - - - - - - - -
24/01:00pm - NE 10 12 1006.9 - - - - - - - - -
24/12:30pm - NE 7 11 1007.4 - - - - - - - - -
24/12:00pm - NE 8 12 1007.6 - - - - - - - - -
24/11:30am - NE 6 10 1008.1 - - - - - - - - -
24/11:00am - NE 6 10 1008.6 - - - - - - - - -
24/10:30am - ENE 7 13 1008.9 - - - - - - - - -
24/10:00am - E 9 15 1009.3 - - - - - - - - -
24/09:30am - E 12 16 1009.6 - - - - - - - - -
24/09:00am - E 14 17 1009.7 - - - - - - - - -
24/08:30am - E 14 17 1009.9 - - - - - - - - -
24/08:00am - E 14 17 1010.1 - - - - - - - - -
24/07:30am - E 14 17 1010.4 - - - - - - - - -
24/07:00am - ESE 14 17 1010.5 - - - - - - - - -
24/06:30am - ESE 14 17 1010.6 - - - - - - - - -

Other Formats:

Comma delimited format used in spreadsheet applications
http://www.bom.gov.au/fwo/IDT60701/IDT60701.95963.axf

JavaScript Object Notation format (JSON) in row-major order
http://www.bom.gov.au/fwo/IDT60701/IDT60701.95963.json